CheckWX is a tool to help pilots better visualize weather data.  It is not intended as a substitute for an official pre-flight weather briefing.

06:45:18 UTC

KISW METAR
Alexander Field South Wood County Airport
Wisconsin Rapids, Wisconsin, USA
Current

51 mins ago

KISW 220554Z AUTO 22006KT 10SM CLR M04/M09 A3012 RMK AO2 SLP213 T10391089 10011 21044 400331172 58010
Observed
Feb-22 @ 05:54 UTC
Wind
  • 220° at 6 KTS
Visibility
10 SM
Flight Rules
VFR
Cloud Levels
  • Clear skies
Temperature
-4°C / 25°F
Dewpoint
-9°C / 16°F
Humidity
69%
Altimeter
30.12" Hg
Pressure
1020.02 hPa
Previous

2 hours ago

KISW 220454Z AUTO 22008KT 10SM CLR M03/M09 A3013 RMK AO2 SLP218 T10331089
Observed
Feb-22 @ 04:54 UTC
Wind
  • 220° at 8 KTS
Visibility
10 SM
Flight Rules
VFR
Cloud Levels
  • Clear skies
Temperature
-3°C / 27°F
Dewpoint
-9°C / 16°F
Humidity
64%
Altimeter
30.13" Hg
Pressure
1020.32 hPa
Previous

3 hours ago

KISW 220354Z AUTO 22009KT 10SM CLR M02/M08 A3014 RMK AO2 SLP221 T10221083
Observed
Feb-22 @ 03:54 UTC
Wind
  • 220° at 9 KTS
Visibility
10 SM
Flight Rules
VFR
Cloud Levels
  • Clear skies
Temperature
-2°C / 28°F
Dewpoint
-8°C / 18°F
Humidity
64%
Altimeter
30.14" Hg
Pressure
1020.62 hPa